sensor_id;sensor_type;location;lat;lon;timestamp;P1;durP1;ratioP1;P2;durP2;ratioP2
74465;SDS011;62916;50.044;15.938;2023-02-01T00:00:27;1.70;;;1.00;;
74465;SDS011;62916;50.044;15.938;2023-02-01T00:02:58;1.50;;;1.40;;
74465;SDS011;62916;50.044;15.938;2023-02-01T00:05:29;1.20;;;1.10;;
74465;SDS011;62916;50.044;15.938;2023-02-01T00:07:59;1.10;;;1.00;;
74465;SDS011;62916;50.044;15.938;2023-02-01T00:10:30;1.10;;;1.00;;
74465;SDS011;62916;50.044;15.938;2023-02-01T00:13:01;0.90;;;0.90;;
74465;SDS011;62916;50.044;15.938;2023-02-01T00:15:31;1.10;;;0.80;;
74465;SDS011;62916;50.044;15.938;2023-02-01T00:18:02;1.20;;;1.00;;
74465;SDS011;62916;50.044;15.938;2023-02-01T00:20:33;1.20;;;1.10;;
74465;SDS011;62916;50.044;15.938;2023-02-01T00:23:04;0.80;;;0.80;;
74465;SDS011;62916;50.044;15.938;2023-02-01T00:25:36;1.30;;;1.20;;
74465;SDS011;62916;50.044;15.938;2023-02-01T00:28:07;1.00;;;0.90;;
74465;SDS011;62916;50.044;15.938;2023-02-01T00:30:40;1.40;;;1.30;;
74465;SDS011;62916;50.044;15.938;2023-02-01T00:33:11;1.00;;;0.90;;
74465;SDS011;62916;50.044;15.938;2023-02-01T00:35:42;0.90;;;0.90;;
74465;SDS011;62916;50.044;15.938;2023-02-01T00:38:13;1.60;;;0.80;;
74465;SDS011;62916;50.044;15.938;2023-02-01T00:40:44;1.10;;;1.10;;
74465;SDS011;62916;50.044;15.938;2023-02-01T00:43:15;1.80;;;1.50;;
74465;SDS011;62916;50.044;15.938;2023-02-01T00:45:46;1.30;;;0.90;;
74465;SDS011;62916;50.044;15.938;2023-02-01T00:48:17;0.90;;;0.90;;
74465;SDS011;62916;50.044;15.938;2023-02-01T00:50:48;0.70;;;0.70;;
74465;SDS011;62916;50.044;15.938;2023-02-01T00:53:19;0.80;;;0.80;;
74465;SDS011;62916;50.044;15.938;2023-02-01T00:55:49;1.10;;;0.90;;
74465;SDS011;62916;50.044;15.938;2023-02-01T00:58:20;1.10;;;1.00;;
74465;SDS011;62916;50.044;15.938;2023-02-01T01:00:54;0.90;;;0.70;;
74465;SDS011;62916;50.044;15.938;2023-02-01T01:03:31;0.90;;;0.80;;
74465;SDS011;62916;50.044;15.938;2023-02-01T01:06:04;1.20;;;1.10;;
74465;SDS011;62916;50.044;15.938;2023-02-01T01:08:36;0.70;;;0.70;;
74465;SDS011;62916;50.044;15.938;2023-02-01T01:11:08;1.10;;;0.70;;
74465;SDS011;62916;50.044;15.938;2023-02-01T01:13:41;0.80;;;0.80;;
74465;SDS011;62916;50.044;15.938;2023-02-01T01:16:12;0.70;;;0.70;;
74465;SDS011;62916;50.044;15.938;2023-02-01T01:18:43;0.70;;;0.70;;
74465;SDS011;62916;50.044;15.938;2023-02-01T01:21:14;0.70;;;0.70;;
74465;SDS011;62916;50.044;15.938;2023-02-01T01:23:45;0.90;;;0.80;;
74465;SDS011;62916;50.044;15.938;2023-02-01T01:26:17;0.80;;;0.70;;
74465;SDS011;62916;50.044;15.938;2023-02-01T01:28:50;0.90;;;0.60;;
74465;SDS011;62916;50.044;15.938;2023-02-01T01:31:23;0.60;;;0.60;;
74465;SDS011;62916;50.044;15.938;2023-02-01T01:33:55;0.70;;;0.70;;
74465;SDS011;62916;50.044;15.938;2023-02-01T01:36:28;0.90;;;0.80;;
74465;SDS011;62916;50.044;15.938;2023-02-01T01:38:59;0.90;;;0.70;;
74465;SDS011;62916;50.044;15.938;2023-02-01T01:41:30;0.80;;;0.80;;
74465;SDS011;62916;50.044;15.938;2023-02-01T01:44:02;0.90;;;0.90;;
74465;SDS011;62916;50.044;15.938;2023-02-01T01:46:34;1.00;;;0.60;;
74465;SDS011;62916;50.044;15.938;2023-02-01T01:49:09;0.70;;;0.70;;
74465;SDS011;62916;50.044;15.938;2023-02-01T01:51:44;0.80;;;0.80;;
74465;SDS011;62916;50.044;15.938;2023-02-01T01:54:20;1.00;;;0.80;;
74465;SDS011;62916;50.044;15.938;2023-02-01T01:56:55;0.80;;;0.80;;
74465;SDS011;62916;50.044;15.938;2023-02-01T01:59:29;0.80;;;0.70;;
74465;SDS011;62916;50.044;15.938;2023-02-01T02:02:04;0.60;;;0.60;;
74465;SDS011;62916;50.044;15.938;2023-02-01T02:04:35;0.70;;;0.70;;
74465;SDS011;62916;50.044;15.938;2023-02-01T02:07:08;0.60;;;0.60;;
74465;SDS011;62916;50.044;15.938;2023-02-01T02:09:43;0.70;;;0.70;;
74465;SDS011;62916;50.044;15.938;2023-02-01T02:12:27;1.50;;;0.60;;
74465;SDS011;62916;50.044;15.938;2023-02-01T02:14:58;0.80;;;0.80;;
74465;SDS011;62916;50.044;15.938;2023-02-01T02:17:33;0.70;;;0.60;;
74465;SDS011;62916;50.044;15.938;2023-02-01T02:26:29;0.50;;;0.50;;
74465;SDS011;62916;50.044;15.938;2023-02-01T02:32:23;1.10;;;0.60;;
74465;SDS011;62916;50.044;15.938;2023-02-01T02:35:11;1.20;;;0.70;;
74465;SDS011;62916;50.044;15.938;2023-02-01T02:37:52;1.10;;;0.90;;
74465;SDS011;62916;50.044;15.938;2023-02-01T02:40:33;0.70;;;0.60;;
74465;SDS011;62916;50.044;15.938;2023-02-01T02:43:09;0.50;;;0.50;;
74465;SDS011;62916;50.044;15.938;2023-02-01T02:46:04;0.80;;;0.80;;
74465;SDS011;62916;50.044;15.938;2023-02-01T02:49:01;1.00;;;0.80;;
74465;SDS011;62916;50.044;15.938;2023-02-01T02:51:40;0.90;;;0.90;;
74465;SDS011;62916;50.044;15.938;2023-02-01T02:54:33;0.70;;;0.70;;
74465;SDS011;62916;50.044;15.938;2023-02-01T02:57:20;0.50;;;0.50;;
74465;SDS011;62916;50.044;15.938;2023-02-01T03:00:14;0.80;;;0.60;;
74465;SDS011;62916;50.044;15.938;2023-02-01T03:03:06;1.00;;;0.70;;
74465;SDS011;62916;50.044;15.938;2023-02-01T03:05:55;1.30;;;0.80;;
74465;SDS011;62916;50.044;15.938;2023-02-01T03:08:26;1.20;;;0.70;;
74465;SDS011;62916;50.044;15.938;2023-02-01T03:10:59;1.10;;;0.90;;
74465;SDS011;62916;50.044;15.938;2023-02-01T03:13:35;0.60;;;0.60;;
74465;SDS011;62916;50.044;15.938;2023-02-01T03:16:10;0.50;;;0.50;;
74465;SDS011;62916;50.044;15.938;2023-02-01T03:18:51;0.60;;;0.60;;
74465;SDS011;62916;50.044;15.938;2023-02-01T03:21:26;0.70;;;0.40;;
74465;SDS011;62916;50.044;15.938;2023-02-01T03:24:02;0.60;;;0.50;;
74465;SDS011;62916;50.044;15.938;2023-02-01T03:26:38;0.50;;;0.50;;
74465;SDS011;62916;50.044;15.938;2023-02-01T03:29:16;0.50;;;0.50;;
74465;SDS011;62916;50.044;15.938;2023-02-01T03:31:51;0.60;;;0.40;;
74465;SDS011;62916;50.044;15.938;2023-02-01T03:34:22;0.60;;;0.50;;
74465;SDS011;62916;50.044;15.938;2023-02-01T03:36:55;0.40;;;0.40;;
74465;SDS011;62916;50.044;15.938;2023-02-01T03:39:31;0.50;;;0.50;;
74465;SDS011;62916;50.044;15.938;2023-02-01T03:42:05;0.50;;;0.50;;
74465;SDS011;62916;50.044;15.938;2023-02-01T03:44:43;0.70;;;0.70;;
74465;SDS011;62916;50.044;15.938;2023-02-01T03:47:19;1.50;;;1.40;;
74465;SDS011;62916;50.044;15.938;2023-02-01T03:49:54;0.60;;;0.50;;
74465;SDS011;62916;50.044;15.938;2023-02-01T03:52:28;1.10;;;0.60;;
74465;SDS011;62916;50.044;15.938;2023-02-01T03:55:02;0.60;;;0.50;;
74465;SDS011;62916;50.044;15.938;2023-02-01T03:57:34;1.00;;;0.30;;
74465;SDS011;62916;50.044;15.938;2023-02-01T04:00:09;0.40;;;0.40;;
74465;SDS011;62916;50.044;15.938;2023-02-01T04:02:47;0.40;;;0.40;;
74465;SDS011;62916;50.044;15.938;2023-02-01T04:05:19;0.70;;;0.50;;
74465;SDS011;62916;50.044;15.938;2023-02-01T04:07:50;0.50;;;0.50;;
74465;SDS011;62916;50.044;15.938;2023-02-01T04:10:22;0.50;;;0.50;;
74465;SDS011;62916;50.044;15.938;2023-02-01T04:12:53;0.40;;;0.40;;
74465;SDS011;62916;50.044;15.938;2023-02-01T04:15:24;0.40;;;0.30;;
74465;SDS011;62916;50.044;15.938;2023-02-01T04:17:58;0.60;;;0.60;;
74465;SDS011;62916;50.044;15.938;2023-02-01T04:20:29;0.40;;;0.40;;
74465;SDS011;62916;50.044;15.938;2023-02-01T04:23:01;0.40;;;0.40;;
74465;SDS011;62916;50.044;15.938;2023-02-01T04:25:31;0.70;;;0.60;;
74465;SDS011;62916;50.044;15.938;2023-02-01T04:28:02;1.10;;;0.50;;
74465;SDS011;62916;50.044;15.938;2023-02-01T04:30:34;1.60;;;0.60;;
74465;SDS011;62916;50.044;15.938;2023-02-01T04:33:05;0.70;;;0.50;;
74465;SDS011;62916;50.044;15.938;2023-02-01T04:35:36;0.50;;;0.40;;
74465;SDS011;62916;50.044;15.938;2023-02-01T04:38:07;0.60;;;0.60;;
74465;SDS011;62916;50.044;15.938;2023-02-01T04:40:37;0.80;;;0.40;;
74465;SDS011;62916;50.044;15.938;2023-02-01T04:43:08;0.90;;;0.50;;
74465;SDS011;62916;50.044;15.938;2023-02-01T04:45:39;0.90;;;0.50;;
74465;SDS011;62916;50.044;15.938;2023-02-01T04:48:09;1.80;;;0.70;;
74465;SDS011;62916;50.044;15.938;2023-02-01T04:50:40;0.60;;;0.60;;
74465;SDS011;62916;50.044;15.938;2023-02-01T04:53:13;0.60;;;0.30;;
74465;SDS011;62916;50.044;15.938;2023-02-01T04:55:44;0.50;;;0.50;;
74465;SDS011;62916;50.044;15.938;2023-02-01T04:58:17;0.70;;;0.40;;
74465;SDS011;62916;50.044;15.938;2023-02-01T05:00:47;0.70;;;0.70;;
74465;SDS011;62916;50.044;15.938;2023-02-01T05:03:19;1.90;;;0.60;;
74465;SDS011;62916;50.044;15.938;2023-02-01T05:05:50;0.80;;;0.70;;
74465;SDS011;62916;50.044;15.938;2023-02-01T05:08:21;0.70;;;0.60;;
74465;SDS011;62916;50.044;15.938;2023-02-01T05:10:53;0.60;;;0.60;;
74465;SDS011;62916;50.044;15.938;2023-02-01T05:13:24;0.70;;;0.70;;
74465;SDS011;62916;50.044;15.938;2023-02-01T05:16:15;2.00;;;1.20;;
74465;SDS011;62916;50.044;15.938;2023-02-01T05:18:45;3.40;;;0.90;;
74465;SDS011;62916;50.044;15.938;2023-02-01T05:21:16;3.10;;;1.20;;
74465;SDS011;62916;50.044;15.938;2023-02-01T05:23:47;5.70;;;1.30;;
74465;SDS011;62916;50.044;15.938;2023-02-01T05:26:36;5.30;;;1.00;;
74465;SDS011;62916;50.044;15.938;2023-02-01T05:29:07;2.80;;;1.00;;
74465;SDS011;62916;50.044;15.938;2023-02-01T05:31:38;5.90;;;1.30;;
74465;SDS011;62916;50.044;15.938;2023-02-01T05:34:09;5.60;;;1.00;;
74465;SDS011;62916;50.044;15.938;2023-02-01T05:36:40;3.80;;;1.00;;
74465;SDS011;62916;50.044;15.938;2023-02-01T05:39:11;4.30;;;0.60;;
74465;SDS011;62916;50.044;15.938;2023-02-01T05:41:42;7.70;;;1.20;;
74465;SDS011;62916;50.044;15.938;2023-02-01T05:44:13;4.50;;;1.10;;
74465;SDS011;62916;50.044;15.938;2023-02-01T05:46:44;6.50;;;1.00;;
74465;SDS011;62916;50.044;15.938;2023-02-01T05:49:16;3.90;;;0.80;;
74465;SDS011;62916;50.044;15.938;2023-02-01T05:51:47;3.80;;;0.70;;
74465;SDS011;62916;50.044;15.938;2023-02-01T05:54:18;3.00;;;1.70;;
74465;SDS011;62916;50.044;15.938;2023-02-01T05:56:49;3.10;;;0.80;;
74465;SDS011;62916;50.044;15.938;2023-02-01T05:59:19;4.10;;;0.70;;
74465;SDS011;62916;50.044;15.938;2023-02-01T06:01:50;1.60;;;0.70;;
74465;SDS011;62916;50.044;15.938;2023-02-01T06:04:21;2.20;;;0.90;;
74465;SDS011;62916;50.044;15.938;2023-02-01T06:06:52;1.90;;;0.70;;
74465;SDS011;62916;50.044;15.938;2023-02-01T06:09:22;1.80;;;0.70;;
74465;SDS011;62916;50.044;15.938;2023-02-01T06:11:53;1.20;;;0.50;;
74465;SDS011;62916;50.044;15.938;2023-02-01T06:14:24;3.20;;;0.70;;
74465;SDS011;62916;50.044;15.938;2023-02-01T06:16:55;3.70;;;0.80;;
74465;SDS011;62916;50.044;15.938;2023-02-01T06:19:26;3.10;;;0.90;;
74465;SDS011;62916;50.044;15.938;2023-02-01T06:21:56;2.40;;;1.10;;
74465;SDS011;62916;50.044;15.938;2023-02-01T06:24:27;2.50;;;0.60;;
74465;SDS011;62916;50.044;15.938;2023-02-01T06:26:58;2.70;;;0.80;;
74465;SDS011;62916;50.044;15.938;2023-02-01T06:29:28;3.10;;;0.80;;
74465;SDS011;62916;50.044;15.938;2023-02-01T06:31:59;2.60;;;0.50;;
74465;SDS011;62916;50.044;15.938;2023-02-01T06:34:31;2.50;;;0.50;;
74465;SDS011;62916;50.044;15.938;2023-02-01T06:37:02;1.50;;;1.10;;
74465;SDS011;62916;50.044;15.938;2023-02-01T06:39:34;1.30;;;0.50;;
74465;SDS011;62916;50.044;15.938;2023-02-01T06:42:05;0.90;;;0.60;;
74465;SDS011;62916;50.044;15.938;2023-02-01T06:44:36;1.00;;;0.50;;
74465;SDS011;62916;50.044;15.938;2023-02-01T06:47:06;1.50;;;0.90;;
74465;SDS011;62916;50.044;15.938;2023-02-01T06:49:37;1.40;;;0.80;;
74465;SDS011;62916;50.044;15.938;2023-02-01T06:52:09;1.60;;;0.50;;
74465;SDS011;62916;50.044;15.938;2023-02-01T06:54:39;2.90;;;0.50;;
74465;SDS011;62916;50.044;15.938;2023-02-01T06:57:11;0.70;;;0.50;;
74465;SDS011;62916;50.044;15.938;2023-02-01T06:59:43;1.10;;;0.60;;
74465;SDS011;62916;50.044;15.938;2023-02-01T07:02:13;0.80;;;0.60;;
74465;SDS011;62916;50.044;15.938;2023-02-01T07:04:44;1.60;;;0.70;;
74465;SDS011;62916;50.044;15.938;2023-02-01T07:07:15;1.20;;;0.60;;
74465;SDS011;62916;50.044;15.938;2023-02-01T07:09:48;1.60;;;0.30;;
74465;SDS011;62916;50.044;15.938;2023-02-01T07:12:19;0.80;;;0.50;;
74465;SDS011;62916;50.044;15.938;2023-02-01T07:14:50;1.10;;;0.50;;
74465;SDS011;62916;50.044;15.938;2023-02-01T07:17:21;2.00;;;0.60;;
74465;SDS011;62916;50.044;15.938;2023-02-01T07:19:52;1.00;;;0.50;;
74465;SDS011;62916;50.044;15.938;2023-02-01T07:22:22;1.50;;;0.50;;
74465;SDS011;62916;50.044;15.938;2023-02-01T07:24:53;0.90;;;0.60;;
74465;SDS011;62916;50.044;15.938;2023-02-01T07:27:24;1.40;;;0.60;;
74465;SDS011;62916;50.044;15.938;2023-02-01T07:29:55;0.50;;;0.50;;
74465;SDS011;62916;50.044;15.938;2023-02-01T07:32:29;0.40;;;0.30;;
74465;SDS011;62916;50.044;15.938;2023-02-01T07:35:00;0.80;;;0.50;;
74465;SDS011;62916;50.044;15.938;2023-02-01T07:37:31;1.40;;;0.80;;
74465;SDS011;62916;50.044;15.938;2023-02-01T07:40:02;0.90;;;0.50;;
74465;SDS011;62916;50.044;15.938;2023-02-01T07:42:35;1.30;;;0.30;;
74465;SDS011;62916;50.044;15.938;2023-02-01T07:45:06;0.70;;;0.40;;
74465;SDS011;62916;50.044;15.938;2023-02-01T07:47:48;0.70;;;0.50;;
74465;SDS011;62916;50.044;15.938;2023-02-01T07:50:20;0.90;;;0.50;;
74465;SDS011;62916;50.044;15.938;2023-02-01T07:52:51;0.60;;;0.40;;
74465;SDS011;62916;50.044;15.938;2023-02-01T07:55:22;1.50;;;0.40;;
74465;SDS011;62916;50.044;15.938;2023-02-01T07:57:53;0.70;;;0.60;;
74465;SDS011;62916;50.044;15.938;2023-02-01T08:00:27;1.20;;;0.50;;
74465;SDS011;62916;50.044;15.938;2023-02-01T08:03:15;0.70;;;0.40;;
74465;SDS011;62916;50.044;15.938;2023-02-01T08:05:46;0.70;;;0.40;;
74465;SDS011;62916;50.044;15.938;2023-02-01T08:08:17;1.70;;;0.60;;
74465;SDS011;62916;50.044;15.938;2023-02-01T08:10:47;1.10;;;0.50;;
74465;SDS011;62916;50.044;15.938;2023-02-01T08:13:18;1.30;;;0.60;;
74465;SDS011;62916;50.044;15.938;2023-02-01T08:15:49;0.50;;;0.50;;
74465;SDS011;62916;50.044;15.938;2023-02-01T08:18:20;0.60;;;0.50;;
74465;SDS011;62916;50.044;15.938;2023-02-01T08:20:51;0.70;;;0.40;;
74465;SDS011;62916;50.044;15.938;2023-02-01T08:23:22;1.00;;;0.40;;
74465;SDS011;62916;50.044;15.938;2023-02-01T08:25:53;1.40;;;0.40;;
74465;SDS011;62916;50.044;15.938;2023-02-01T08:28:32;1.10;;;0.40;;
74465;SDS011;62916;50.044;15.938;2023-02-01T08:31:05;0.40;;;0.40;;
74465;SDS011;62916;50.044;15.938;2023-02-01T08:33:37;1.10;;;0.70;;
74465;SDS011;62916;50.044;15.938;2023-02-01T08:36:09;1.10;;;0.40;;
74465;SDS011;62916;50.044;15.938;2023-02-01T08:38:40;0.90;;;0.50;;
74465;SDS011;62916;50.044;15.938;2023-02-01T08:41:11;1.00;;;0.40;;
74465;SDS011;62916;50.044;15.938;2023-02-01T08:43:43;0.80;;;0.40;;
74465;SDS011;62916;50.044;15.938;2023-02-01T08:46:16;0.30;;;0.30;;
74465;SDS011;62916;50.044;15.938;2023-02-01T08:48:47;1.40;;;0.30;;
74465;SDS011;62916;50.044;15.938;2023-02-01T08:51:19;0.80;;;0.60;;
74465;SDS011;62916;50.044;15.938;2023-02-01T08:53:51;0.40;;;0.40;;
74465;SDS011;62916;50.044;15.938;2023-02-01T08:56:22;0.80;;;0.80;;
74465;SDS011;62916;50.044;15.938;2023-02-01T08:58:53;0.80;;;0.50;;
74465;SDS011;62916;50.044;15.938;2023-02-01T09:01:24;0.90;;;0.50;;
74465;SDS011;62916;50.044;15.938;2023-02-01T09:03:55;0.90;;;0.40;;
74465;SDS011;62916;50.044;15.938;2023-02-01T09:06:27;0.80;;;0.50;;
74465;SDS011;62916;50.044;15.938;2023-02-01T09:08:58;0.60;;;0.50;;
74465;SDS011;62916;50.044;15.938;2023-02-01T09:11:29;1.30;;;0.50;;
74465;SDS011;62916;50.044;15.938;2023-02-01T09:14:00;1.90;;;0.70;;
74465;SDS011;62916;50.044;15.938;2023-02-01T09:16:31;1.30;;;0.60;;
74465;SDS011;62916;50.044;15.938;2023-02-01T09:19:02;0.80;;;0.40;;
74465;SDS011;62916;50.044;15.938;2023-02-01T09:21:52;1.00;;;0.60;;
74465;SDS011;62916;50.044;15.938;2023-02-01T09:24:23;0.60;;;0.30;;
74465;SDS011;62916;50.044;15.938;2023-02-01T09:26:55;0.50;;;0.40;;
74465;SDS011;62916;50.044;15.938;2023-02-01T09:29:26;1.10;;;0.50;;
74465;SDS011;62916;50.044;15.938;2023-02-01T09:31:57;1.10;;;0.60;;
74465;SDS011;62916;50.044;15.938;2023-02-01T09:34:31;0.70;;;0.60;;
74465;SDS011;62916;50.044;15.938;2023-02-01T09:37:02;0.90;;;0.90;;
74465;SDS011;62916;50.044;15.938;2023-02-01T09:39:33;1.40;;;0.60;;
74465;SDS011;62916;50.044;15.938;2023-02-01T09:42:08;1.20;;;0.60;;
74465;SDS011;62916;50.044;15.938;2023-02-01T09:47:26;1.00;;;0.50;;
74465;SDS011;62916;50.044;15.938;2023-02-01T09:49:59;1.40;;;0.80;;
74465;SDS011;62916;50.044;15.938;2023-02-01T09:52:34;1.00;;;0.70;;
74465;SDS011;62916;50.044;15.938;2023-02-01T09:55:11;0.90;;;0.80;;
74465;SDS011;62916;50.044;15.938;2023-02-01T09:57:49;1.00;;;0.50;;
74465;SDS011;62916;50.044;15.938;2023-02-01T10:00:26;0.60;;;0.50;;
74465;SDS011;62916;50.044;15.938;2023-02-01T10:03:01;0.80;;;0.50;;
74465;SDS011;62916;50.044;15.938;2023-02-01T10:05:42;0.90;;;0.60;;
74465;SDS011;62916;50.044;15.938;2023-02-01T10:08:30;0.70;;;0.50;;
74465;SDS011;62916;50.044;15.938;2023-02-01T10:11:13;0.80;;;0.60;;
74465;SDS011;62916;50.044;15.938;2023-02-01T10:16:32;0.80;;;0.80;;
74465;SDS011;62916;50.044;15.938;2023-02-01T10:19:19;0.70;;;0.50;;
74465;SDS011;62916;50.044;15.938;2023-02-01T10:22:02;1.20;;;0.70;;
74465;SDS011;62916;50.044;15.938;2023-02-01T10:24:38;1.10;;;1.00;;
74465;SDS011;62916;50.044;15.938;2023-02-01T10:27:14;1.50;;;0.80;;
74465;SDS011;62916;50.044;15.938;2023-02-01T10:29:50;2.10;;;1.10;;
74465;SDS011;62916;50.044;15.938;2023-02-01T10:32:24;1.30;;;0.70;;
74465;SDS011;62916;50.044;15.938;2023-02-01T10:35:00;1.40;;;0.90;;
74465;SDS011;62916;50.044;15.938;2023-02-01T10:37:37;0.90;;;0.80;;
74465;SDS011;62916;50.044;15.938;2023-02-01T10:40:15;1.10;;;0.90;;
74465;SDS011;62916;50.044;15.938;2023-02-01T10:42:50;0.80;;;0.70;;
74465;SDS011;62916;50.044;15.938;2023-02-01T10:45:24;1.10;;;0.90;;
74465;SDS011;62916;50.044;15.938;2023-02-01T10:47:58;1.10;;;0.90;;
74465;SDS011;62916;50.044;15.938;2023-02-01T10:50:34;1.40;;;0.60;;
74465;SDS011;62916;50.044;15.938;2023-02-01T10:53:09;0.70;;;0.70;;
74465;SDS011;62916;50.044;15.938;2023-02-01T10:55:49;1.40;;;0.70;;
74465;SDS011;62916;50.044;15.938;2023-02-01T10:58:25;0.90;;;0.90;;
74465;SDS011;62916;50.044;15.938;2023-02-01T11:00:59;0.90;;;0.80;;
74465;SDS011;62916;50.044;15.938;2023-02-01T11:03:36;1.00;;;0.90;;
74465;SDS011;62916;50.044;15.938;2023-02-01T11:06:13;1.90;;;0.90;;
74465;SDS011;62916;50.044;15.938;2023-02-01T11:08:51;1.20;;;1.00;;
74465;SDS011;62916;50.044;15.938;2023-02-01T11:11:24;1.10;;;0.90;;
74465;SDS011;62916;50.044;15.938;2023-02-01T11:13:56;1.20;;;0.80;;
74465;SDS011;62916;50.044;15.938;2023-02-01T11:16:33;1.40;;;1.00;;
74465;SDS011;62916;50.044;15.938;2023-02-01T11:19:05;1.70;;;1.10;;
74465;SDS011;62916;50.044;15.938;2023-02-01T11:21:43;1.70;;;0.90;;
74465;SDS011;62916;50.044;15.938;2023-02-01T11:24:19;1.30;;;1.10;;
74465;SDS011;62916;50.044;15.938;2023-02-01T11:26:55;2.20;;;1.20;;
74465;SDS011;62916;50.044;15.938;2023-02-01T11:32:02;2.10;;;1.00;;
74465;SDS011;62916;50.044;15.938;2023-02-01T11:34:36;1.60;;;1.10;;
74465;SDS011;62916;50.044;15.938;2023-02-01T11:37:13;2.20;;;1.10;;
74465;SDS011;62916;50.044;15.938;2023-02-01T11:39:54;1.50;;;1.40;;
74465;SDS011;62916;50.044;15.938;2023-02-01T11:42:26;2.00;;;1.30;;
74465;SDS011;62916;50.044;15.938;2023-02-01T11:47:48;1.30;;;1.20;;
74465;SDS011;62916;50.044;15.938;2023-02-01T11:50:25;1.50;;;1.40;;
74465;SDS011;62916;50.044;15.938;2023-02-01T11:53:13;1.30;;;1.20;;
74465;SDS011;62916;50.044;15.938;2023-02-01T11:55:58;1.90;;;1.50;;
74465;SDS011;62916;50.044;15.938;2023-02-01T11:58:43;2.30;;;1.60;;
74465;SDS011;62916;50.044;15.938;2023-02-01T12:01:27;1.70;;;1.20;;
74465;SDS011;62916;50.044;15.938;2023-02-01T12:04:10;1.70;;;1.30;;
74465;SDS011;62916;50.044;15.938;2023-02-01T12:06:55;1.90;;;1.30;;
74465;SDS011;62916;50.044;15.938;2023-02-01T12:09:34;2.10;;;1.80;;
74465;SDS011;62916;50.044;15.938;2023-02-01T12:12:19;1.80;;;1.60;;
74465;SDS011;62916;50.044;15.938;2023-02-01T12:15:05;1.70;;;1.60;;
74465;SDS011;62916;50.044;15.938;2023-02-01T12:17:53;1.60;;;1.50;;
74465;SDS011;62916;50.044;15.938;2023-02-01T12:20:47;1.80;;;1.60;;
74465;SDS011;62916;50.044;15.938;2023-02-01T12:23:35;2.20;;;1.60;;
74465;SDS011;62916;50.044;15.938;2023-02-01T12:26:30;2.40;;;1.70;;
74465;SDS011;62916;50.044;15.938;2023-02-01T12:32:35;2.10;;;1.70;;
74465;SDS011;62916;50.044;15.938;2023-02-01T12:35:25;2.20;;;2.00;;
74465;SDS011;62916;50.044;15.938;2023-02-01T12:38:32;2.00;;;1.70;;
74465;SDS011;62916;50.044;15.938;2023-02-01T12:41:26;1.70;;;1.60;;
74465;SDS011;62916;50.044;15.938;2023-02-01T12:44:10;2.00;;;1.80;;
74465;SDS011;62916;50.044;15.938;2023-02-01T12:46:49;2.30;;;2.10;;
74465;SDS011;62916;50.044;15.938;2023-02-01T12:49:23;2.70;;;1.90;;
74465;SDS011;62916;50.044;15.938;2023-02-01T12:52:04;2.50;;;1.70;;
74465;SDS011;62916;50.044;15.938;2023-02-01T12:54:40;1.70;;;1.60;;
74465;SDS011;62916;50.044;15.938;2023-02-01T12:57:17;2.90;;;2.20;;
74465;SDS011;62916;50.044;15.938;2023-02-01T12:59:53;2.90;;;2.70;;
74465;SDS011;62916;50.044;15.938;2023-02-01T13:02:33;3.10;;;2.70;;
74465;SDS011;62916;50.044;15.938;2023-02-01T13:05:14;3.30;;;2.50;;
74465;SDS011;62916;50.044;15.938;2023-02-01T13:07:49;3.90;;;2.80;;
74465;SDS011;62916;50.044;15.938;2023-02-01T13:10:27;3.10;;;2.80;;
74465;SDS011;62916;50.044;15.938;2023-02-01T13:13:04;4.40;;;3.40;;
74465;SDS011;62916;50.044;15.938;2023-02-01T13:15:45;4.20;;;3.60;;
74465;SDS011;62916;50.044;15.938;2023-02-01T13:18:20;4.20;;;3.40;;
74465;SDS011;62916;50.044;15.938;2023-02-01T13:21:07;4.40;;;3.70;;
74465;SDS011;62916;50.044;15.938;2023-02-01T13:23:43;4.20;;;3.80;;
74465;SDS011;62916;50.044;15.938;2023-02-01T13:26:17;4.40;;;3.40;;
74465;SDS011;62916;50.044;15.938;2023-02-01T13:28:49;3.90;;;3.40;;
74465;SDS011;62916;50.044;15.938;2023-02-01T13:31:29;3.80;;;3.40;;
74465;SDS011;62916;50.044;15.938;2023-02-01T13:37:42;4.70;;;4.30;;
74465;SDS011;62916;50.044;15.938;2023-02-01T13:40:37;5.40;;;4.90;;
74465;SDS011;62916;50.044;15.938;2023-02-01T13:43:13;5.30;;;4.40;;
74465;SDS011;62916;50.044;15.938;2023-02-01T13:45:49;4.60;;;4.20;;
74465;SDS011;62916;50.044;15.938;2023-02-01T13:48:24;5.10;;;4.20;;
74465;SDS011;62916;50.044;15.938;2023-02-01T13:50:59;5.60;;;5.10;;
74465;SDS011;62916;50.044;15.938;2023-02-01T13:53:31;5.60;;;5.00;;
74465;SDS011;62916;50.044;15.938;2023-02-01T13:56:06;5.00;;;4.50;;
74465;SDS011;62916;50.044;15.938;2023-02-01T13:58:40;6.00;;;5.30;;
74465;SDS011;62916;50.044;15.938;2023-02-01T14:07:20;5.20;;;4.60;;
74465;SDS011;62916;50.044;15.938;2023-02-01T14:09:51;6.10;;;5.40;;
74465;SDS011;62916;50.044;15.938;2023-02-01T14:15:23;5.30;;;4.90;;
74465;SDS011;62916;50.044;15.938;2023-02-01T14:17:56;5.70;;;5.10;;
74465;SDS011;62916;50.044;15.938;2023-02-01T14:23:24;5.60;;;5.10;;
74465;SDS011;62916;50.044;15.938;2023-02-01T14:28:49;5.90;;;5.30;;
74465;SDS011;62916;50.044;15.938;2023-02-01T14:34:18;6.00;;;4.60;;
74465;SDS011;62916;50.044;15.938;2023-02-01T14:36:54;5.20;;;4.70;;
74465;SDS011;62916;50.044;15.938;2023-02-01T14:39:33;5.80;;;5.30;;
74465;SDS011;62916;50.044;15.938;2023-02-01T14:42:17;5.70;;;5.20;;
74465;SDS011;62916;50.044;15.938;2023-02-01T14:44:54;5.80;;;5.30;;
74465;SDS011;62916;50.044;15.938;2023-02-01T14:47:46;6.10;;;5.30;;
74465;SDS011;62916;50.044;15.938;2023-02-01T14:50:21;5.90;;;5.40;;
74465;SDS011;62916;50.044;15.938;2023-02-01T14:53:01;5.80;;;5.30;;
74465;SDS011;62916;50.044;15.938;2023-02-01T14:55:49;5.80;;;5.30;;
74465;SDS011;62916;50.044;15.938;2023-02-01T14:58:27;5.40;;;4.90;;
74465;SDS011;62916;50.044;15.938;2023-02-01T15:01:06;5.40;;;4.90;;
74465;SDS011;62916;50.044;15.938;2023-02-01T15:03:49;6.70;;;6.20;;
74465;SDS011;62916;50.044;15.938;2023-02-01T15:06:26;5.90;;;5.40;;
74465;SDS011;62916;50.044;15.938;2023-02-01T15:09:03;6.10;;;5.50;;
74465;SDS011;62916;50.044;15.938;2023-02-01T15:14:27;9.10;;;6.20;;
74465;SDS011;62916;50.044;15.938;2023-02-01T15:16:59;8.10;;;6.30;;
74465;SDS011;62916;50.044;15.938;2023-02-01T15:19:30;8.90;;;6.30;;
74465;SDS011;62916;50.044;15.938;2023-02-01T15:22:02;8.80;;;6.50;;
74465;SDS011;62916;50.044;15.938;2023-02-01T15:24:33;9.20;;;6.10;;
74465;SDS011;62916;50.044;15.938;2023-02-01T15:27:04;8.20;;;7.40;;
74465;SDS011;62916;50.044;15.938;2023-02-01T15:29:38;9.40;;;7.10;;
74465;SDS011;62916;50.044;15.938;2023-02-01T15:32:15;8.50;;;6.20;;
74465;SDS011;62916;50.044;15.938;2023-02-01T15:34:59;8.00;;;6.40;;
74465;SDS011;62916;50.044;15.938;2023-02-01T15:37:31;7.30;;;6.30;;
74465;SDS011;62916;50.044;15.938;2023-02-01T15:40:20;9.20;;;6.90;;
74465;SDS011;62916;50.044;15.938;2023-02-01T15:42:52;7.50;;;6.40;;
74465;SDS011;62916;50.044;15.938;2023-02-01T15:45:26;7.70;;;6.20;;
74465;SDS011;62916;50.044;15.938;2023-02-01T15:47:59;7.50;;;6.70;;
74465;SDS011;62916;50.044;15.938;2023-02-01T15:50:30;11.10;;;7.70;;
74465;SDS011;62916;50.044;15.938;2023-02-01T15:53:01;6.70;;;6.00;;
74465;SDS011;62916;50.044;15.938;2023-02-01T15:55:34;8.10;;;6.00;;
74465;SDS011;62916;50.044;15.938;2023-02-01T15:58:18;9.40;;;6.80;;
74465;SDS011;62916;50.044;15.938;2023-02-01T16:00:51;6.50;;;5.90;;
74465;SDS011;62916;50.044;15.938;2023-02-01T16:03:26;6.60;;;5.90;;
74465;SDS011;62916;50.044;15.938;2023-02-01T16:06:05;7.60;;;6.00;;